createdAt,value
2022-12-08T00:00:02.285Z,-0.37
2022-12-08T00:05:36.662Z,-0.36
2022-12-08T00:10:49.686Z,-0.31
2022-12-08T00:16:02.689Z,-0.27
2022-12-08T00:21:10.005Z,-0.26
2022-12-08T00:26:17.175Z,-0.30
2022-12-08T00:31:24.319Z,-0.35
2022-12-08T00:36:31.957Z,-0.36
2022-12-08T00:41:56.578Z,-0.35
2022-12-08T00:47:03.683Z,-0.33
2022-12-08T00:52:12.782Z,-0.33
2022-12-08T00:57:20.363Z,-0.36
2022-12-08T01:02:27.521Z,-0.39
2022-12-08T01:07:34.786Z,-0.44
2022-12-08T01:12:43.203Z,-0.46
2022-12-08T01:17:50.193Z,-0.44
2022-12-08T01:22:57.336Z,-0.37
2022-12-08T01:28:04.397Z,-0.26
2022-12-08T01:33:11.477Z,-0.16
2022-12-08T01:38:18.570Z,-0.12
2022-12-08T01:43:26.004Z,-0.11
2022-12-08T01:48:33.173Z,-0.13
2022-12-08T01:53:41.597Z,-0.15
2022-12-08T01:58:53.318Z,-0.13
2022-12-08T02:04:02.681Z,-0.08
2022-12-08T02:09:10.496Z,0.00
2022-12-08T02:14:17.792Z,0.05
2022-12-08T02:19:52.927Z,0.06
2022-12-08T02:25:10.105Z,0.03
2022-12-08T02:30:23.390Z,-0.02
2022-12-08T02:35:37.592Z,-0.05
2022-12-08T02:40:54.013Z,-0.06
2022-12-08T02:46:06.901Z,-0.00
2022-12-08T02:51:13.992Z,0.07
2022-12-08T02:56:37.715Z,0.12
2022-12-08T03:02:11.484Z,0.14
2022-12-08T03:07:26.370Z,0.12
2022-12-08T03:12:39.369Z,0.06
2022-12-08T03:17:52.251Z,-0.00
2022-12-08T03:23:03.629Z,-0.01
2022-12-08T03:28:11.169Z,0.04
2022-12-08T03:33:24.923Z,0.10
2022-12-08T03:38:41.039Z,0.13
2022-12-08T03:43:48.600Z,0.13
2022-12-08T03:48:56.225Z,0.09
2022-12-08T03:54:03.301Z,0.02
2022-12-08T03:59:11.903Z,-0.06
2022-12-08T04:04:19.175Z,-0.14
2022-12-08T04:09:26.496Z,-0.19
2022-12-08T04:14:33.566Z,-0.16
2022-12-08T04:19:41.125Z,-0.09
2022-12-08T04:24:48.132Z,-0.08
2022-12-08T04:29:55.274Z,-0.10
2022-12-08T04:35:02.339Z,-0.14
2022-12-08T04:40:11.320Z,-0.19
2022-12-08T04:45:19.014Z,-0.26
2022-12-08T04:50:26.139Z,-0.32
2022-12-08T04:55:33.210Z,-0.36
2022-12-08T05:00:40.509Z,-0.36
2022-12-08T05:05:48.069Z,-0.33
2022-12-08T05:10:55.163Z,-0.32
2022-12-08T05:16:07.887Z,-0.32
2022-12-08T05:21:15.288Z,-0.35
2022-12-08T05:26:22.379Z,-0.42
2022-12-08T05:31:29.527Z,-0.46
2022-12-08T05:36:36.658Z,-0.52
2022-12-08T05:41:43.952Z,-0.57
2022-12-08T05:46:51.189Z,-0.59
2022-12-08T05:51:58.213Z,-0.58
2022-12-08T05:57:05.343Z,-0.57
2022-12-08T06:02:12.646Z,-0.61
2022-12-08T06:07:19.858Z,-0.69
2022-12-08T06:12:27.543Z,-0.80
2022-12-08T06:17:34.772Z,-0.96
2022-12-08T06:22:42.151Z,-1.13
2022-12-08T06:27:49.545Z,-1.26
2022-12-08T06:32:57.264Z,-1.34
2022-12-08T06:38:07.425Z,-1.36
2022-12-08T06:43:14.880Z,-1.31
2022-12-08T06:48:22.570Z,-1.25
2022-12-08T06:53:30.628Z,-1.21
2022-12-08T06:58:38.063Z,-1.21
2022-12-08T07:03:46.738Z,-1.24
2022-12-08T07:08:54.846Z,-1.31
2022-12-08T07:14:03.269Z,-1.37
2022-12-08T07:19:10.686Z,-1.38
2022-12-08T07:24:17.966Z,-1.33
2022-12-08T07:29:26.454Z,-1.23
2022-12-08T07:34:33.754Z,-1.11
2022-12-08T07:39:40.886Z,-1.09
2022-12-08T07:44:47.959Z,-1.12
2022-12-08T07:49:55.099Z,-1.13
2022-12-08T07:55:09.322Z,-1.10
2022-12-08T08:00:20.680Z,-1.05
2022-12-08T08:05:29.571Z,-0.97
2022-12-08T08:10:36.850Z,-0.88
2022-12-08T08:15:44.438Z,-0.85
2022-12-08T08:20:52.423Z,-0.92
2022-12-08T08:26:01.795Z,-0.99
2022-12-08T08:31:09.105Z,-1.02
2022-12-08T08:36:16.473Z,-1.04
2022-12-08T08:41:23.521Z,-0.98
2022-12-08T08:46:30.985Z,-0.88
2022-12-08T08:51:38.459Z,-0.73
2022-12-08T08:56:45.803Z,-0.64
2022-12-08T09:01:53.055Z,-0.68
2022-12-08T09:07:00.726Z,-0.74
2022-12-08T09:12:10.571Z,-0.74
2022-12-08T09:17:18.577Z,-0.76
2022-12-08T09:22:26.173Z,-0.79
2022-12-08T09:27:34.331Z,-0.74
2022-12-08T09:32:41.761Z,-0.71
2022-12-08T09:37:48.986Z,-0.74
2022-12-08T09:43:01.961Z,-0.73
2022-12-08T09:48:15.520Z,-0.67
2022-12-08T09:53:30.599Z,-0.62
2022-12-08T09:58:52.160Z,-0.59
2022-12-08T10:03:59.554Z,-0.63
2022-12-08T10:09:25.738Z,-0.65
2022-12-08T10:14:41.979Z,-0.63
2022-12-08T10:19:50.985Z,-0.60
2022-12-08T10:25:01.902Z,-0.56
2022-12-08T10:30:15.914Z,-0.56
2022-12-08T10:35:25.430Z,-0.56
2022-12-08T10:40:43.968Z,-0.55
2022-12-08T10:45:53.275Z,-0.55
2022-12-08T10:51:03.500Z,-0.52
2022-12-08T10:56:17.975Z,-0.48
2022-12-08T11:01:28.649Z,-0.40
2022-12-08T11:06:38.990Z,-0.32
2022-12-08T11:11:51.859Z,-0.26
2022-12-08T11:17:05.756Z,-0.23
2022-12-08T11:22:26.590Z,-0.25
2022-12-08T11:27:36.838Z,-0.22
2022-12-08T11:32:46.733Z,-0.14
2022-12-08T11:38:03.097Z,-0.07
2022-12-08T11:43:28.940Z,0.02
2022-12-08T11:48:40.116Z,0.09
2022-12-08T11:53:54.905Z,0.13
2022-12-08T11:59:20.574Z,0.19
2022-12-08T12:04:34.610Z,0.27
2022-12-08T12:10:19.927Z,0.38
2022-12-08T12:16:18.597Z,0.54
2022-12-08T12:21:32.764Z,0.72
2022-12-08T12:26:50.617Z,0.80
2022-12-08T12:32:06.666Z,0.84
2022-12-08T12:37:22.256Z,0.89
2022-12-08T12:42:45.270Z,0.96
2022-12-08T12:49:06.595Z,1.07
2022-12-08T12:54:27.350Z,1.20
2022-12-08T12:59:51.571Z,1.26
2022-12-08T13:05:04.857Z,1.26
2022-12-08T13:10:22.996Z,1.25
2022-12-08T13:15:44.121Z,1.30
2022-12-08T13:20:56.329Z,1.36
2022-12-08T13:26:27.286Z,1.38
2022-12-08T13:31:48.287Z,1.38
2022-12-08T13:37:09.408Z,1.40
2022-12-08T13:42:23.131Z,1.45
2022-12-08T13:47:59.596Z,1.52
2022-12-08T13:58:43.498Z,1.51
2022-12-08T14:04:28.374Z,1.51
2022-12-08T14:09:24.567Z,1.56
2022-12-08T14:15:01.313Z,1.59
2022-12-08T14:20:03.299Z,1.54
2022-12-08T14:25:17.009Z,1.46
2022-12-08T14:30:30.690Z,1.37
2022-12-08T14:35:40.166Z,1.35
2022-12-08T14:40:48.877Z,1.32
2022-12-08T14:46:00.301Z,1.23
2022-12-08T14:51:15.371Z,1.16
2022-12-08T14:56:26.045Z,1.15
2022-12-08T15:01:34.464Z,1.21
2022-12-08T15:06:52.399Z,1.29
2022-12-08T15:12:05.627Z,1.35
2022-12-08T15:17:34.405Z,1.36
2022-12-08T15:22:41.696Z,1.29
2022-12-08T15:27:50.770Z,1.24
2022-12-08T15:32:58.028Z,1.23
2022-12-08T15:38:05.119Z,1.23
2022-12-08T15:43:14.033Z,1.25
2022-12-08T15:48:23.159Z,1.23
2022-12-08T15:53:30.309Z,1.17
2022-12-08T15:58:56.057Z,1.14
2022-12-08T16:09:34.818Z,1.22
2022-12-08T16:20:18.520Z,1.38
2022-12-08T16:25:46.220Z,1.35
2022-12-08T16:30:58.975Z,1.31
2022-12-08T16:36:05.314Z,1.29
2022-12-08T16:41:36.829Z,1.30
2022-12-08T16:46:44.138Z,1.35
2022-12-08T16:51:58.442Z,1.38
2022-12-08T16:57:05.729Z,1.36
2022-12-08T17:02:16.775Z,1.29
2022-12-08T17:07:43.852Z,1.29
2022-12-08T17:12:51.713Z,1.32
2022-12-08T17:17:59.143Z,1.35
2022-12-08T17:23:06.489Z,1.39
2022-12-08T17:28:22.476Z,1.42
2022-12-08T17:33:41.240Z,1.39
2022-12-08T17:38:48.286Z,1.38
2022-12-08T17:43:55.359Z,1.39
2022-12-08T17:49:02.421Z,1.42
2022-12-08T17:54:09.479Z,1.46
2022-12-08T17:59:17.148Z,1.50
2022-12-08T18:04:24.690Z,1.51
2022-12-08T18:09:32.934Z,1.50
2022-12-08T18:14:40.022Z,1.47
2022-12-08T18:19:47.167Z,1.48
2022-12-08T18:24:54.482Z,1.50
2022-12-08T18:30:02.978Z,1.57
2022-12-08T18:35:11.792Z,1.61
2022-12-08T18:40:20.691Z,1.63
2022-12-08T18:45:27.853Z,1.62
2022-12-08T18:50:34.986Z,1.60
2022-12-08T18:55:42.051Z,1.63
2022-12-08T19:00:49.148Z,1.72
2022-12-08T19:06:07.123Z,1.86
2022-12-08T19:11:22.770Z,2.00
2022-12-08T19:16:30.046Z,2.07
2022-12-08T19:21:43.019Z,2.05
2022-12-08T19:26:51.885Z,1.99
2022-12-08T19:32:00.419Z,1.95
2022-12-08T19:37:09.146Z,1.96
2022-12-08T19:42:36.084Z,2.02
2022-12-08T19:47:43.482Z,2.08
2022-12-08T19:52:50.595Z,2.10
2022-12-08T19:57:58.548Z,2.06
2022-12-08T20:03:04.301Z,1.97
2022-12-08T20:08:12.094Z,1.93
2022-12-08T20:13:37.062Z,1.95
2022-12-08T20:18:44.813Z,2.02
2022-12-08T20:23:51.909Z,2.05
2022-12-08T20:28:59.047Z,2.06
2022-12-08T20:34:06.340Z,2.03
2022-12-08T20:39:17.967Z,1.91
2022-12-08T20:44:25.827Z,1.79
2022-12-08T20:49:34.887Z,1.69
2022-12-08T20:54:42.873Z,1.69
2022-12-08T20:59:51.753Z,1.77
2022-12-08T21:05:03.331Z,1.86
2022-12-08T21:10:14.201Z,1.90
2022-12-08T21:15:23.372Z,1.87
2022-12-08T21:20:31.826Z,1.81
2022-12-08T21:25:41.019Z,1.69
2022-12-08T21:30:51.347Z,1.59
2022-12-08T21:36:09.579Z,1.59
2022-12-08T21:41:41.293Z,1.62
2022-12-08T21:46:49.660Z,1.67
2022-12-08T21:51:58.238Z,1.69
2022-12-08T21:57:08.995Z,1.64
2022-12-08T22:02:22.877Z,1.57
2022-12-08T22:07:35.310Z,1.52
2022-12-08T22:12:44.033Z,1.53
2022-12-08T22:17:50.384Z,1.57
2022-12-08T22:22:58.694Z,1.65
2022-12-08T22:28:07.201Z,1.69
2022-12-08T22:33:15.392Z,1.64
2022-12-08T22:38:23.075Z,1.55
2022-12-08T22:43:34.696Z,1.50
2022-12-08T22:48:42.363Z,1.50
2022-12-08T22:53:50.107Z,1.55
2022-12-08T22:58:57.187Z,1.60
2022-12-08T23:04:04.704Z,1.60
2022-12-08T23:09:12.142Z,1.59
2022-12-08T23:14:19.522Z,1.54
2022-12-08T23:19:26.843Z,1.52
2022-12-08T23:24:34.135Z,1.55
2022-12-08T23:29:41.735Z,1.62
2022-12-08T23:34:49.462Z,1.70
2022-12-08T23:39:57.066Z,1.72
2022-12-08T23:45:04.897Z,1.70
2022-12-08T23:50:13.247Z,1.65
2022-12-08T23:55:21.150Z,1.62
